Time;durP1;ratioP1;P1;durP2;ratioP2;P2;SDS_P1;SDS_P2;PMS_P1;PMS_P2;Temp;Humidity;BMP_temperature;BMP_pressure;BME280_temperature;BME280_humidity;BME280_pressure;Samples;Min_cycle;Max_cycle;Signal;HPM_P1;HPM_P2
2023/06/17 00:02:21;;;;;;;;;19.50;19.00;;;;;;;;5049353;28;8801;-82
2023/06/17 00:04:49;;;;;;;;;18.50;18.50;;;;;;;;5050360;28;8940;-81
2023/06/17 00:07:16;;;;;;;;;17.50;17.25;;;;;;;;5052039;28;8915;-82
2023/06/17 00:09:44;;;;;;;;;19.25;18.75;;;;;;;;5056167;28;8964;-80
2023/06/17 00:12:12;;;;;;;;;19.25;18.50;;;;;;;;5055347;28;8944;-81
2023/06/17 00:14:40;;;;;;;;;19.00;19.00;;;;;;;;5056175;28;9568;-82
2023/06/17 00:17:09;;;;;;;;;21.25;19.50;;;;;;;;5050202;28;8898;-81
2023/06/17 00:19:37;;;;;;;;;17.75;17.75;;;;;;;;5049989;28;8853;-81
2023/06/17 00:22:05;;;;;;;;;19.25;18.25;;;;;;;;5049857;28;8846;-82
2023/06/17 00:24:33;;;;;;;;;19.50;19.50;;;;;;;;5043839;28;8922;-82
2023/06/17 00:27:00;;;;;;;;;20.75;20.75;;;;;;;;5053901;28;8861;-83
2023/06/17 00:29:31;;;;;;;;;20.25;19.25;;;;;;;;5055946;28;8885;-81
2023/06/17 00:32:04;;;;;;;;;21.00;20.75;;;;;;;;5054008;28;9738;-82
2023/06/17 00:34:35;;;;;;;;;21.00;21.00;;;;;;;;5059194;28;8842;-82
2023/06/17 00:37:03;;;;;;;;;20.25;19.00;;;;;;;;5055682;28;8867;-83
2023/06/17 00:39:30;;;;;;;;;24.25;24.25;;;;;;;;5056649;28;8847;-83
2023/06/17 00:41:58;;;;;;;;;20.25;19.25;;;;;;;;5052981;28;9602;-83
2023/06/17 00:44:25;;;;;;;;;13.00;13.00;;;;;;;;5052644;28;8975;-85
2023/06/17 00:46:56;;;;;;;;;21.00;21.00;;;;;;;;5051476;28;8861;-86
2023/06/17 00:49:30;;;;;;;;;20.50;20.50;;;;;;;;5051253;28;8984;-85
2023/06/17 00:52:04;;;;;;;;;18.50;18.00;;;;;;;;5052463;28;8835;-83
2023/06/17 00:54:31;;;;;;;;;21.75;21.75;;;;;;;;5048750;28;8955;-84
2023/06/17 00:57:01;;;;;;;;;23.00;23.00;;;;;;;;5054247;28;8881;-84
2023/06/17 00:59:29;;;;;;;;;16.75;16.75;;;;;;;;5057246;28;8916;-82
2023/06/17 01:02:00;;;;;;;;;21.25;21.00;;;;;;;;5048607;28;8901;-86
2023/06/17 01:04:28;;;;;;;;;24.75;24.75;;;;;;;;5049327;28;8878;-86
2023/06/17 01:07:00;;;;;;;;;21.00;21.00;;;;;;;;5048081;28;8919;-86
2023/06/17 01:09:31;;;;;;;;;22.75;22.75;;;;;;;;5049890;28;8837;-85
2023/06/17 01:11:59;;;;;;;;;18.50;18.50;;;;;;;;5049703;28;8857;-85
2023/06/17 01:14:29;;;;;;;;;22.00;22.00;;;;;;;;5050466;28;8960;-86
2023/06/17 01:16:58;;;;;;;;;21.25;20.75;;;;;;;;5049531;28;8917;-86
2023/06/17 01:19:26;;;;;;;;;20.00;19.50;;;;;;;;5049207;28;8845;-84
2023/06/17 01:21:55;;;;;;;;;17.50;17.50;;;;;;;;5054390;28;8923;-86
2023/06/17 01:24:30;;;;;;;;;22.75;22.75;;;;;;;;5050438;28;8972;-82
2023/06/17 01:26:59;;;;;;;;;23.00;23.00;;;;;;;;5049889;28;8887;-82
2023/06/17 01:29:29;;;;;;;;;22.00;20.67;;;;;;;;5049462;28;8861;-84
2023/06/17 01:31:57;;;;;;;;;20.25;19.25;;;;;;;;5043378;28;8890;-83
2023/06/17 01:34:33;;;;;;;;;16.50;16.50;;;;;;;;5049585;28;9678;-84
2023/06/17 01:37:04;;;;;;;;;19.75;19.75;;;;;;;;5049313;28;8838;-81
2023/06/17 01:39:34;;;;;;;;;22.33;22.33;;;;;;;;5050291;28;8877;-80
2023/06/17 01:42:01;;;;;;;;;23.00;23.00;;;;;;;;5050881;28;8962;-81
2023/06/17 01:44:29;;;;;;;;;25.67;24.33;;;;;;;;5050607;28;8957;-82
2023/06/17 01:46:57;;;;;;;;;27.33;23.33;;;;;;;;5051992;28;8992;-82
2023/06/17 01:49:24;;;;;;;;;26.00;24.33;;;;;;;;5057973;28;8959;-82
2023/06/17 01:51:52;;;;;;;;;22.67;22.67;;;;;;;;5058806;28;8997;-83
2023/06/17 01:54:20;;;;;;;;;20.00;20.00;;;;;;;;5060197;28;9165;-82
2023/06/17 01:56:48;;;;;;;;;27.00;24.00;;;;;;;;5053533;28;9089;-83
2023/06/17 01:59:16;;;;;;;;;18.25;18.00;;;;;;;;5069157;28;9838;-83
2023/06/17 02:01:43;;;;;;;;;23.00;23.00;;;;;;;;5057592;28;8876;-81
2023/06/17 02:04:10;;;;;;;;;26.25;25.00;;;;;;;;5050885;28;8959;-82
2023/06/17 02:06:39;;;;;;;;;19.00;19.00;;;;;;;;5040214;28;9603;-82
2023/06/17 02:09:07;;;;;;;;;23.67;23.33;;;;;;;;5051143;28;8960;-81
2023/06/17 02:11:34;;;;;;;;;24.33;22.67;;;;;;;;5057549;28;9058;-81
2023/06/17 02:14:02;;;;;;;;;22.50;22.25;;;;;;;;5047851;28;9100;-82
2023/06/17 02:16:32;;;;;;;;;24.67;23.67;;;;;;;;5048205;28;8853;-82
2023/06/17 02:19:02;;;;;;;;;20.00;20.00;;;;;;;;5038847;28;8941;-83
2023/06/17 02:21:29;;;;;;;;;23.00;23.00;;;;;;;;5060404;28;8968;-82
2023/06/17 02:23:56;;;;;;;;;27.33;24.33;;;;;;;;5052277;28;9068;-81
2023/06/17 02:26:23;;;;;;;;;23.00;22.33;;;;;;;;5052051;28;8934;-83
2023/06/17 02:28:51;;;;;;;;;19.00;19.00;;;;;;;;5060438;28;9232;-82
2023/06/17 02:31:20;;;;;;;;;26.00;24.00;;;;;;;;5056857;28;9032;-83
2023/06/17 02:33:47;;;;;;;;;21.00;21.00;;;;;;;;5051089;28;9003;-85
2023/06/17 02:36:15;;;;;;;;;23.33;22.00;;;;;;;;5051613;28;9102;-87
2023/06/17 02:38:42;;;;;;;;;17.00;17.00;;;;;;;;5050838;28;9094;-84
2023/06/17 02:41:12;;;;;;;;;23.33;23.33;;;;;;;;5054380;28;9745;-82
2023/06/17 02:43:39;;;;;;;;;24.00;22.67;;;;;;;;5055315;28;9034;-86
2023/06/17 02:46:07;;;;;;;;;21.67;21.67;;;;;;;;5049000;28;9187;-85
2023/06/17 02:48:36;;;;;;;;;21.33;21.33;;;;;;;;5052370;28;9087;-85
2023/06/17 02:51:04;;;;;;;;;23.75;23.75;;;;;;;;5051211;28;8957;-82
2023/06/17 02:53:31;;;;;;;;;24.00;23.33;;;;;;;;5051135;28;8887;-85
2023/06/17 02:55:59;;;;;;;;;22.33;22.33;;;;;;;;5056554;28;9105;-84
2023/06/17 02:58:26;;;;;;;;;23.33;23.33;;;;;;;;5052110;28;8932;-82
2023/06/17 03:00:54;;;;;;;;;27.67;25.67;;;;;;;;5052904;28;8946;-87
2023/06/17 03:03:34;;;;;;;;;28.00;24.33;;;;;;;;5055376;28;8927;-84
2023/06/17 03:06:04;;;;;;;;;24.00;24.00;;;;;;;;5058781;28;9056;-87
2023/06/17 03:08:33;;;;;;;;;25.33;24.00;;;;;;;;5050165;28;9148;-88
2023/06/17 03:11:01;;;;;;;;;22.00;21.00;;;;;;;;5059412;28;8948;-86
2023/06/17 03:13:28;;;;;;;;;24.00;24.00;;;;;;;;5060398;28;8932;-85
2023/06/17 03:15:56;;;;;;;;;24.33;24.33;;;;;;;;5051190;28;8962;-83
2023/06/17 03:18:23;;;;;;;;;25.33;25.33;;;;;;;;5054974;28;9044;-83
2023/06/17 03:20:53;;;;;;;;;23.50;22.50;;;;;;;;5056106;28;8943;-83
2023/06/17 03:23:21;;;;;;;;;24.00;22.67;;;;;;;;5060589;28;8837;-81
2023/06/17 03:25:49;;;;;;;;;23.33;22.67;;;;;;;;5057538;28;9003;-81
2023/06/17 03:28:17;;;;;;;;;24.00;24.00;;;;;;;;5059556;28;9125;-83
2023/06/17 03:30:44;;;;;;;;;28.00;27.33;;;;;;;;5057230;28;9039;-84
2023/06/17 03:33:15;;;;;;;;;29.00;25.67;;;;;;;;5056140;28;9385;-83
2023/06/17 03:35:45;;;;;;;;;27.33;27.33;;;;;;;;5054773;28;9407;-83
2023/06/17 03:38:13;;;;;;;;;25.33;24.33;;;;;;;;5049699;28;9224;-83
2023/06/17 03:40:41;;;;;;;;;23.33;23.33;;;;;;;;5050268;28;9963;-84
2023/06/17 03:43:09;;;;;;;;;29.33;27.67;;;;;;;;5050788;28;9351;-87
2023/06/17 03:45:36;;;;;;;;;27.33;27.33;;;;;;;;5050302;28;9277;-84
2023/06/17 03:48:05;;;;;;;;;23.67;23.67;;;;;;;;5045614;28;9355;-84
2023/06/17 03:50:32;;;;;;;;;25.67;25.67;;;;;;;;5051276;28;9115;-84
2023/06/17 03:53:00;;;;;;;;;22.67;22.33;;;;;;;;5049705;28;9343;-85
2023/06/17 03:55:29;;;;;;;;;26.00;25.00;;;;;;;;5056358;28;9136;-84
2023/06/17 03:57:59;;;;;;;;;24.33;22.67;;;;;;;;5051884;28;9222;-83
2023/06/17 04:00:28;;;;;;;;;25.67;25.67;;;;;;;;5050480;28;8967;-83
2023/06/17 04:02:59;;;;;;;;;22.33;20.33;;;;;;;;5052047;28;9268;-82
2023/06/17 04:05:32;;;;;;;;;26.00;26.00;;;;;;;;5052011;28;9079;-83
2023/06/17 04:08:02;;;;;;;;;30.33;29.33;;;;;;;;5050817;28;9898;-83
2023/06/17 04:10:30;;;;;;;;;25.33;25.33;;;;;;;;5039305;28;9398;-83
2023/06/17 04:12:59;;;;;;;;;27.33;27.33;;;;;;;;5049833;28;9119;-83
2023/06/17 04:15:27;;;;;;;;;26.00;25.33;;;;;;;;5049712;28;9184;-83
2023/06/17 04:17:55;;;;;;;;;34.00;26.33;;;;;;;;5050010;28;9076;-83
2023/06/17 04:20:28;;;;;;;;;30.33;28.33;;;;;;;;5050230;28;9289;-84
2023/06/17 04:22:58;;;;;;;;;25.33;24.33;;;;;;;;5054178;28;9093;-84
2023/06/17 04:25:32;;;;;;;;;25.00;25.00;;;;;;;;5042951;28;9223;-84
2023/06/17 04:28:03;;;;;;;;;25.00;23.67;;;;;;;;5058287;28;9087;-83
2023/06/17 04:30:32;;;;;;;;;25.00;23.00;;;;;;;;5060814;28;8939;-85
2023/06/17 04:33:00;;;;;;;;;25.00;25.00;;;;;;;;5054054;28;8996;-83
2023/06/17 04:35:27;;;;;;;;;23.00;23.00;;;;;;;;5051203;28;8885;-84
2023/06/17 04:37:55;;;;;;;;;26.50;25.00;;;;;;;;5056900;28;9053;-84
2023/06/17 04:40:23;;;;;;;;;20.25;20.25;;;;;;;;5060954;28;8905;-84
2023/06/17 04:42:50;;;;;;;;;26.00;26.00;;;;;;;;5054878;28;8837;-82
2023/06/17 04:45:22;;;;;;;;;27.50;27.50;;;;;;;;5064051;28;8985;-82
2023/06/17 04:47:50;;;;;;;;;29.00;25.25;;;;;;;;5045523;28;8920;-81
2023/06/17 04:50:17;;;;;;;;;27.50;26.25;;;;;;;;5060351;28;8835;-80
2023/06/17 04:52:47;;;;;;;;;27.75;25.75;;;;;;;;5061255;28;8854;-84
2023/06/17 04:55:14;;;;;;;;;27.25;22.50;;;;;;;;5048739;28;8869;-83
2023/06/17 04:57:45;;;;;;;;;26.75;24.75;;;;;;;;5062304;28;8826;-81
2023/06/17 05:00:16;;;;;;;;;27.50;25.25;;;;;;;;5062507;28;8841;-83
2023/06/17 05:02:47;;;;;;;;;23.25;23.25;;;;;;;;5061139;28;8853;-85
2023/06/17 05:05:16;;;;;;;;;26.50;26.50;;;;;;;;5052800;28;8866;-84
2023/06/17 05:07:43;;;;;;;;;23.75;23.75;;;;;;;;5061143;28;8872;-83
2023/06/17 05:10:14;;;;;;;;;24.25;24.25;;;;;;;;5052021;28;8862;-85
2023/06/17 05:12:42;;;;;;;;;26.50;23.75;;;;;;;;5036949;28;8838;-83
2023/06/17 05:15:23;;;;;;;;;26.00;26.00;;;;;;;;5048125;28;8995;-83
2023/06/17 05:17:52;;;;;;;;;23.00;23.00;;;;;;;;5055357;28;8858;-80
2023/06/17 05:20:19;;;;;;;;;16.75;16.75;;;;;;;;5049625;28;8861;-82
2023/06/17 05:22:46;;;;;;;;;24.25;23.00;;;;;;;;5050574;28;8888;-80
2023/06/17 05:25:16;;;;;;;;;21.50;21.50;;;;;;;;5059112;28;8886;-82
2023/06/17 05:27:43;;;;;;;;;23.25;22.25;;;;;;;;5046898;28;9654;-81
2023/06/17 05:30:14;;;;;;;;;25.50;23.75;;;;;;;;5055363;28;8835;-82
2023/06/17 05:32:41;;;;;;;;;22.25;22.25;;;;;;;;5068447;28;9625;-83
2023/06/17 05:35:10;;;;;;;;;23.25;21.75;;;;;;;;5055026;28;8964;-82
2023/06/17 05:37:37;;;;;;;;;26.75;24.50;;;;;;;;5049685;28;8849;-82
2023/06/17 05:40:06;;;;;;;;;25.50;25.50;;;;;;;;5048628;28;8991;-83
2023/06/17 05:42:34;;;;;;;;;29.25;28.00;;;;;;;;5048445;28;9762;-82
2023/06/17 05:45:01;;;;;;;;;24.25;24.25;;;;;;;;5055295;28;8862;-82
2023/06/17 05:47:32;;;;;;;;;24.00;23.00;;;;;;;;5059655;28;8829;-81
2023/06/17 05:49:59;;;;;;;;;25.00;24.50;;;;;;;;5050043;28;8838;-83
2023/06/17 05:52:28;;;;;;;;;23.00;21.50;;;;;;;;5047907;28;8857;-90
2023/06/17 05:54:55;;;;;;;;;21.75;21.50;;;;;;;;5062876;28;8872;-76
2023/06/17 05:57:22;;;;;;;;;27.25;24.00;;;;;;;;5059604;28;8938;-82
2023/06/17 05:59:49;;;;;;;;;21.00;21.00;;;;;;;;5055916;28;8853;-78
2023/06/17 06:02:17;;;;;;;;;19.75;18.50;;;;;;;;5059692;28;8823;-84
2023/06/17 06:04:44;;;;;;;;;22.50;20.00;;;;;;;;5049706;28;8966;-86
2023/06/17 06:07:11;;;;;;;;;22.50;22.50;;;;;;;;5051726;28;8853;-85
2023/06/17 06:09:40;;;;;;;;;20.75;20.00;;;;;;;;5051711;28;8865;-83
2023/06/17 06:12:07;;;;;;;;;19.75;19.25;;;;;;;;5053568;28;8857;-89
2023/06/17 06:14:35;;;;;;;;;17.00;17.00;;;;;;;;5054898;28;8887;-83
2023/06/17 06:17:02;;;;;;;;;17.75;17.75;;;;;;;;5052177;28;9076;-85
2023/06/17 06:19:29;;;;;;;;;17.00;15.00;;;;;;;;5052725;28;8830;-81
2023/06/17 06:21:56;;;;;;;;;18.00;18.00;;;;;;;;5052654;28;8857;-83
2023/06/17 06:24:24;;;;;;;;;19.50;18.75;;;;;;;;5053887;28;8873;-83
2023/06/17 06:26:52;;;;;;;;;15.75;15.75;;;;;;;;5053930;28;8877;-78
2023/06/17 06:29:20;;;;;;;;;17.25;15.50;;;;;;;;5053670;28;8871;-78
2023/06/17 06:31:47;;;;;;;;;19.75;19.25;;;;;;;;5055603;28;8821;-80
2023/06/17 06:34:14;;;;;;;;;20.00;20.00;;;;;;;;5062433;28;9775;-81
2023/06/17 06:36:41;;;;;;;;;19.25;18.25;;;;;;;;5066220;28;8858;-79
2023/06/17 06:39:08;;;;;;;;;18.50;18.50;;;;;;;;5054049;28;8853;-77
2023/06/17 06:41:38;;;;;;;;;18.00;18.00;;;;;;;;5052456;28;9598;-76
2023/06/17 06:44:07;;;;;;;;;17.40;17.40;;;;;;;;5052692;28;8877;-80
2023/06/17 06:46:34;;;;;;;;;20.40;19.40;;;;;;;;5055373;28;8951;-77
2023/06/17 06:49:02;;;;;;;;;20.80;17.60;;;;;;;;5050386;28;8861;-76
2023/06/17 06:51:29;;;;;;;;;14.40;14.40;;;;;;;;5050141;28;8863;-77
2023/06/17 06:53:56;;;;;;;;;19.00;17.80;;;;;;;;5049761;28;8853;-74
2023/06/17 06:56:24;;;;;;;;;15.40;15.40;;;;;;;;5050144;28;8869;-77
2023/06/17 06:58:51;;;;;;;;;17.00;17.00;;;;;;;;5065471;28;8955;-77
2023/06/17 07:01:19;;;;;;;;;17.00;17.00;;;;;;;;5052917;28;8770;-74
2023/06/17 07:03:47;;;;;;;;;16.00;16.00;;;;;;;;5046040;28;9008;-76
2023/06/17 07:06:14;;;;;;;;;15.00;15.00;;;;;;;;5052628;28;8849;-77
2023/06/17 07:08:41;;;;;;;;;12.20;12.20;;;;;;;;5053132;28;8865;-78
2023/06/17 07:11:09;;;;;;;;;18.80;18.20;;;;;;;;5063494;28;8847;-78
2023/06/17 07:13:36;;;;;;;;;16.60;16.00;;;;;;;;5052735;28;8873;-80
2023/06/17 07:16:04;;;;;;;;;16.60;16.60;;;;;;;;5050055;28;8850;-81
2023/06/17 07:18:33;;;;;;;;;16.60;16.00;;;;;;;;5060621;28;8893;-76
2023/06/17 07:21:00;;;;;;;;;18.40;17.00;;;;;;;;5058096;28;9729;-78
2023/06/17 07:23:27;;;;;;;;;18.60;18.60;;;;;;;;5059312;28;8881;-79
2023/06/17 07:25:55;;;;;;;;;15.40;15.40;;;;;;;;5064879;28;8851;-76
2023/06/17 07:28:22;;;;;;;;;15.60;15.00;;;;;;;;5063026;28;8981;-78
2023/06/17 07:30:50;;;;;;;;;17.60;16.20;;;;;;;;5068437;28;9624;-77
2023/06/17 07:33:17;;;;;;;;;16.20;15.40;;;;;;;;5064925;28;8927;-77
2023/06/17 07:35:46;;;;;;;;;17.60;17.60;;;;;;;;5063338;28;8855;-77
2023/06/17 07:38:13;;;;;;;;;17.60;15.80;;;;;;;;5056454;28;8996;-78
2023/06/17 07:40:40;;;;;;;;;15.20;15.20;;;;;;;;5061979;28;8831;-77
2023/06/17 07:43:10;;;;;;;;;16.40;16.20;;;;;;;;5054371;28;8869;-78
2023/06/17 07:45:37;;;;;;;;;18.60;17.20;;;;;;;;5053672;28;8862;-77
2023/06/17 07:48:05;;;;;;;;;17.20;17.20;;;;;;;;5052019;28;8846;-78
2023/06/17 07:50:32;;;;;;;;;18.00;15.20;;;;;;;;5054461;28;8865;-77
2023/06/17 07:53:01;;;;;;;;;16.40;16.40;;;;;;;;5054507;28;8969;-81
2023/06/17 07:55:28;;;;;;;;;15.60;15.60;;;;;;;;5064373;28;8853;-78
2023/06/17 07:57:56;;;;;;;;;17.60;17.60;;;;;;;;5059705;28;9632;-80
2023/06/17 08:00:23;;;;;;;;;15.00;15.00;;;;;;;;5060821;28;8839;-82
2023/06/17 08:02:51;;;;;;;;;12.00;12.00;;;;;;;;5049809;28;8939;-87
2023/06/17 08:05:18;;;;;;;;;17.60;15.80;;;;;;;;5063598;28;8871;-77
2023/06/17 08:07:45;;;;;;;;;14.40;14.20;;;;;;;;5052342;28;8995;-83
2023/06/17 08:10:14;;;;;;;;;16.60;15.40;;;;;;;;5060947;28;8855;-83
2023/06/17 08:12:44;;;;;;;;;18.40;18.40;;;;;;;;5060768;28;8889;-82
2023/06/17 08:15:11;;;;;;;;;13.60;13.40;;;;;;;;5064534;28;8881;-82
2023/06/17 08:17:38;;;;;;;;;16.20;16.20;;;;;;;;5055053;28;8895;-81
2023/06/17 08:20:09;;;;;;;;;18.00;16.40;;;;;;;;5048511;28;8872;-80
2023/06/17 08:22:37;;;;;;;;;13.80;13.80;;;;;;;;5049140;28;8876;-78
2023/06/17 08:25:07;;;;;;;;;15.60;14.00;;;;;;;;5064134;28;8857;-77
2023/06/17 08:27:37;;;;;;;;;10.60;10.60;;;;;;;;5056954;28;8976;-76
2023/06/17 08:30:08;;;;;;;;;14.00;14.00;;;;;;;;5048110;28;8968;-74
2023/06/17 08:32:35;;;;;;;;;17.40;15.60;;;;;;;;5059996;28;8845;-77
2023/06/17 08:35:06;;;;;;;;;18.40;16.60;;;;;;;;5048317;28;8861;-75
2023/06/17 08:37:34;;;;;;;;;14.20;14.20;;;;;;;;5063169;28;8885;-75
2023/06/17 08:40:01;;;;;;;;;15.40;13.80;;;;;;;;5061563;28;8834;-75
2023/06/17 08:42:29;;;;;;;;;14.20;14.20;;;;;;;;5064247;28;8954;-76
2023/06/17 08:45:01;;;;;;;;;13.60;13.60;;;;;;;;5053269;28;8842;-74
2023/06/17 08:47:28;;;;;;;;;19.40;16.20;;;;;;;;5049872;28;8939;-79
2023/06/17 08:49:56;;;;;;;;;16.40;14.00;;;;;;;;5047786;28;8895;-76
2023/06/17 08:52:24;;;;;;;;;13.80;13.80;;;;;;;;5047087;28;8992;-79
2023/06/17 08:54:52;;;;;;;;;17.20;15.00;;;;;;;;5046967;28;8846;-77
2023/06/17 08:57:19;;;;;;;;;27.40;23.60;;;;;;;;5047555;28;8860;-75
2023/06/17 08:59:47;;;;;;;;;15.00;13.20;;;;;;;;5047331;28;8884;-80
2023/06/17 09:02:17;;;;;;;;;12.60;12.60;;;;;;;;5047833;28;8899;-80
2023/06/17 09:04:45;;;;;;;;;14.40;13.00;;;;;;;;5049419;28;8874;-79
2023/06/17 09:07:12;;;;;;;;;12.80;12.80;;;;;;;;5050358;28;8960;-81
2023/06/17 09:09:40;;;;;;;;;39.20;31.20;;;;;;;;5050284;28;8861;-81
2023/06/17 09:12:08;;;;;;;;;12.80;12.80;;;;;;;;5050498;28;9636;-80
2023/06/17 09:14:37;;;;;;;;;15.20;13.40;;;;;;;;5050397;28;8988;-79
2023/06/17 09:17:08;;;;;;;;;15.80;15.00;;;;;;;;5047993;28;8861;-80
2023/06/17 09:19:45;;;;;;;;;12.20;12.20;;;;;;;;5049450;28;8882;-80
2023/06/17 09:22:13;;;;;;;;;16.40;16.40;;;;;;;;5047946;28;8880;-81
2023/06/17 09:24:43;;;;;;;;;12.00;12.00;;;;;;;;5046395;28;8846;-79
2023/06/17 09:27:21;;;;;;;;;13.60;13.60;;;;;;;;5047394;28;8869;-80
2023/06/17 09:29:51;;;;;;;;;13.60;13.60;;;;;;;;5052063;28;8988;-81
2023/06/17 09:32:18;;;;;;;;;14.00;13.20;;;;;;;;5051266;28;8812;-82
2023/06/17 09:34:50;;;;;;;;;13.20;13.20;;;;;;;;5052230;28;8865;-82
2023/06/17 09:37:17;;;;;;;;;15.80;15.80;;;;;;;;5052457;28;8861;-84
2023/06/17 09:39:46;;;;;;;;;12.00;12.00;;;;;;;;5052520;28;8851;-84
2023/06/17 09:42:15;;;;;;;;;13.80;13.80;;;;;;;;5053696;28;8854;-83
2023/06/17 09:44:42;;;;;;;;;14.40;14.40;;;;;;;;5053550;28;8872;-81
2023/06/17 09:47:10;;;;;;;;;13.40;13.40;;;;;;;;5053819;28;8920;-83
2023/06/17 09:49:38;;;;;;;;;15.40;13.80;;;;;;;;5052827;28;8870;-80
2023/06/17 09:52:09;;;;;;;;;15.20;15.20;;;;;;;;5058621;28;9628;-79
2023/06/17 09:54:37;;;;;;;;;12.00;12.00;;;;;;;;5062205;28;8838;-80
2023/06/17 09:57:05;;;;;;;;;14.40;14.40;;;;;;;;5051345;28;8892;-76
2023/06/17 09:59:33;;;;;;;;;15.40;13.80;;;;;;;;5051083;28;8844;-80
2023/06/17 10:02:00;;;;;;;;;15.00;15.00;;;;;;;;5058343;28;8819;-77
2023/06/17 10:04:27;;;;;;;;;14.00;12.40;;;;;;;;5050599;28;8834;-79
2023/06/17 10:06:55;;;;;;;;;12.40;12.40;;;;;;;;5049686;28;8873;-76
2023/06/17 10:09:24;;;;;;;;;14.00;14.00;;;;;;;;5056924;28;9433;-74
2023/06/17 10:11:54;;;;;;;;;14.20;14.20;;;;;;;;5051134;28;8988;-76
2023/06/17 10:14:26;;;;;;;;;14.20;13.00;;;;;;;;5050152;28;8834;-79
2023/06/17 10:16:53;;;;;;;;;12.80;12.80;;;;;;;;5051266;28;8883;-80
2023/06/17 10:19:28;;;;;;;;;13.40;13.20;;;;;;;;5051574;28;8854;-79
2023/06/17 10:21:56;;;;;;;;;14.20;14.20;;;;;;;;5055761;28;8984;-77
2023/06/17 10:24:26;;;;;;;;;13.60;13.40;;;;;;;;5055238;28;8883;-76
2023/06/17 10:26:54;;;;;;;;;14.40;14.40;;;;;;;;5062029;28;8900;-80
2023/06/17 10:29:22;;;;;;;;;33.80;27.20;;;;;;;;5047459;28;8843;-77
2023/06/17 10:31:50;;;;;;;;;16.00;14.60;;;;;;;;5052864;28;8832;-75
2023/06/17 10:34:21;;;;;;;;;13.80;13.80;;;;;;;;5063074;28;8945;-82
2023/06/17 10:36:51;;;;;;;;;12.80;12.40;;;;;;;;5051453;28;8857;-86
2023/06/17 10:39:18;;;;;;;;;10.00;10.00;;;;;;;;5038886;28;9608;-80
2023/06/17 10:41:59;;;;;;;;;11.20;11.20;;;;;;;;5050451;28;8850;-80
2023/06/17 10:44:28;;;;;;;;;12.80;12.80;;;;;;;;5049734;28;8833;-78
2023/06/17 10:46:56;;;;;;;;;15.00;15.00;;;;;;;;5048911;28;8898;-85
2023/06/17 10:49:23;;;;;;;;;14.40;14.00;;;;;;;;5049957;28;8850;-84
2023/06/17 10:51:51;;;;;;;;;15.00;15.00;;;;;;;;5050245;28;8885;-80
2023/06/17 10:54:27;;;;;;;;;14.40;13.40;;;;;;;;5050194;28;8845;-77
2023/06/17 10:56:56;;;;;;;;;15.00;13.40;;;;;;;;5049422;28;9388;-81
2023/06/17 10:59:26;;;;;;;;;13.00;12.60;;;;;;;;5061590;28;8859;-84
2023/06/17 11:01:59;;;;;;;;;13.20;13.20;;;;;;;;5049428;28;8826;-83
2023/06/17 11:04:30;;;;;;;;;14.80;14.80;;;;;;;;5062050;28;8869;-86
2023/06/17 11:06:58;;;;;;;;;10.20;9.80;;;;;;;;5059038;28;8841;-88
2023/06/17 11:09:26;;;;;;;;;13.60;13.00;;;;;;;;5054512;28;8876;-83
2023/06/17 11:11:56;;;;;;;;;16.60;14.40;;;;;;;;5064356;28;8854;-81
2023/06/17 11:14:23;;;;;;;;;12.00;12.00;;;;;;;;5058477;28;8841;-81
2023/06/17 11:16:51;;;;;;;;;12.00;11.20;;;;;;;;5055527;28;8975;-80
2023/06/17 11:19:18;;;;;;;;;14.40;14.00;;;;;;;;5057699;28;8835;-75
2023/06/17 11:21:46;;;;;;;;;15.40;12.00;;;;;;;;5063648;28;8920;-81
2023/06/17 11:24:13;;;;;;;;;14.80;13.20;;;;;;;;5061875;28;8861;-81
2023/06/17 11:26:41;;;;;;;;;14.60;14.60;;;;;;;;5058359;28;8964;-78
2023/06/17 11:29:13;;;;;;;;;11.00;11.00;;;;;;;;5051999;28;8834;-82
2023/06/17 11:31:40;;;;;;;;;11.80;11.40;;;;;;;;5055962;28;8808;-80
2023/06/17 11:34:09;;;;;;;;;15.40;13.20;;;;;;;;5048973;28;8865;-82
2023/06/17 11:36:37;;;;;;;;;10.00;10.00;;;;;;;;5061079;28;8974;-81
2023/06/17 11:39:08;;;;;;;;;11.60;11.60;;;;;;;;5056602;28;8869;-80
2023/06/17 11:41:38;;;;;;;;;13.20;13.20;;;;;;;;5062138;28;8847;-79
2023/06/17 11:44:10;;;;;;;;;12.00;12.00;;;;;;;;5052088;28;8849;-79
2023/06/17 11:46:38;;;;;;;;;12.60;12.60;;;;;;;;5049335;28;8846;-80
2023/06/17 11:49:12;;;;;;;;;12.00;12.00;;;;;;;;5051121;28;9652;-80
2023/06/17 11:51:47;;;;;;;;;12.80;12.80;;;;;;;;5049157;28;8915;-81
2023/06/17 11:54:15;;;;;;;;;13.80;13.80;;;;;;;;5048792;28;8964;-81
2023/06/17 11:56:45;;;;;;;;;13.80;12.40;;;;;;;;5049131;28;9693;-80
2023/06/17 11:59:18;;;;;;;;;14.00;13.20;;;;;;;;5049299;28;8849;-82
2023/06/17 12:01:45;;;;;;;;;13.80;13.80;;;;;;;;5053493;28;8797;-81
2023/06/17 12:04:13;;;;;;;;;13.80;13.80;;;;;;;;5049817;28;8865;-82
2023/06/17 12:06:42;;;;;;;;;14.20;14.20;;;;;;;;5050295;28;8868;-82
2023/06/17 12:09:12;;;;;;;;;14.00;14.00;;;;;;;;5055662;28;8884;-83
2023/06/17 12:11:46;;;;;;;;;16.20;14.80;;;;;;;;5056181;28;8885;-82
2023/06/17 12:20:02;;;;;;;;;14.00;14.00;;;;;;;;5027110;28;8988;-82
2023/06/17 12:22:29;;;;;;;;;12.60;12.60;;;;;;;;5049800;28;9629;-81
2023/06/17 12:24:59;;;;;;;;;13.80;13.80;;;;;;;;5048859;28;8881;-81
2023/06/17 12:27:30;;;;;;;;;13.40;13.40;;;;;;;;5047727;28;8895;-80
2023/06/17 12:30:00;;;;;;;;;15.00;15.00;;;;;;;;5040570;28;8891;-80
2023/06/17 12:32:28;;;;;;;;;16.40;15.40;;;;;;;;5054411;28;8821;-85
2023/06/17 12:34:55;;;;;;;;;16.80;15.40;;;;;;;;5060777;28;8955;-80
2023/06/17 12:37:27;;;;;;;;;15.60;15.60;;;;;;;;5063829;28;8894;-80
2023/06/17 12:39:55;;;;;;;;;11.60;11.60;;;;;;;;5060454;28;8865;-80
2023/06/17 12:42:23;;;;;;;;;14.80;14.80;;;;;;;;5060459;28;8909;-81
2023/06/17 12:44:50;;;;;;;;;13.80;13.80;;;;;;;;5051033;28;8918;-79
2023/06/17 12:47:19;;;;;;;;;16.20;15.40;;;;;;;;5061549;28;8858;-79
2023/06/17 12:49:47;;;;;;;;;15.80;14.40;;;;;;;;5048927;28;8861;-79
2023/06/17 12:52:14;;;;;;;;;13.60;13.60;;;;;;;;5050529;28;8919;-80
2023/06/17 12:54:44;;;;;;;;;6.60;6.60;;;;;;;;5049035;28;8856;-79
2023/06/17 12:57:11;;;;;;;;;18.00;14.80;;;;;;;;5055548;28;8862;-82
2023/06/17 12:59:38;;;;;;;;;16.20;14.00;;;;;;;;5062285;28;8885;-81
2023/06/17 13:02:08;;;;;;;;;17.60;17.60;;;;;;;;5060510;28;8803;-81
2023/06/17 13:04:37;;;;;;;;;15.00;15.00;;;;;;;;5053189;28;8849;-80
2023/06/17 13:07:07;;;;;;;;;15.80;14.60;;;;;;;;5048685;28;8857;-81
2023/06/17 13:09:38;;;;;;;;;12.60;12.60;;;;;;;;5048263;28;8919;-79
2023/06/17 13:12:07;;;;;;;;;14.80;13.60;;;;;;;;5048047;28;8983;-80
2023/06/17 13:14:34;;;;;;;;;14.20;14.20;;;;;;;;5047697;28;8857;-79
2023/06/17 13:17:01;;;;;;;;;14.60;12.60;;;;;;;;5047618;28;8878;-82
2023/06/17 13:19:36;;;;;;;;;19.40;16.40;;;;;;;;5047646;28;8878;-80
2023/06/17 13:22:05;;;;;;;;;13.60;13.60;;;;;;;;5048449;28;9787;-80
2023/06/17 13:24:32;;;;;;;;;12.20;12.20;;;;;;;;5047858;28;8945;-80
2023/06/17 13:26:59;;;;;;;;;11.40;11.40;;;;;;;;5047621;28;8958;-79
2023/06/17 13:29:26;;;;;;;;;10.00;10.00;;;;;;;;5048270;28;8861;-80
2023/06/17 13:31:55;;;;;;;;;14.80;14.00;;;;;;;;5038625;28;8794;-80
2023/06/17 13:34:22;;;;;;;;;14.00;14.00;;;;;;;;5048068;28;8861;-80
2023/06/17 13:36:49;;;;;;;;;14.00;14.00;;;;;;;;5047246;28;8857;-81
2023/06/17 13:39:20;;;;;;;;;8.00;8.00;;;;;;;;5055492;28;8862;-81
2023/06/17 13:41:47;;;;;;;;;13.00;13.00;;;;;;;;5051181;28;8857;-81
2023/06/17 13:44:15;;;;;;;;;13.80;13.80;;;;;;;;5047558;28;8873;-81
2023/06/17 13:46:42;;;;;;;;;12.80;12.80;;;;;;;;5047201;28;9629;-80
2023/06/17 13:49:12;;;;;;;;;13.40;13.40;;;;;;;;5047768;28;9020;-80
2023/06/17 13:51:39;;;;;;;;;13.40;12.80;;;;;;;;5047187;28;9000;-80
2023/06/17 13:54:09;;;;;;;;;15.40;15.40;;;;;;;;5057570;28;8850;-81
2023/06/17 13:56:40;;;;;;;;;12.80;12.80;;;;;;;;5049986;28;8854;-80
2023/06/17 13:59:07;;;;;;;;;13.40;13.40;;;;;;;;5048267;28;8968;-81
2023/06/17 14:01:35;;;;;;;;;11.60;11.60;;;;;;;;5046210;28;8798;-81
2023/06/17 14:04:02;;;;;;;;;10.00;10.00;;;;;;;;5047476;28;8865;-81
2023/06/17 14:06:31;;;;;;;;;12.20;12.20;;;;;;;;5047368;28;8858;-80
2023/06/17 14:08:58;;;;;;;;;12.20;11.40;;;;;;;;5059284;28;9431;-80
2023/06/17 14:11:26;;;;;;;;;10.80;10.80;;;;;;;;5048452;28;8846;-80
2023/06/17 14:13:54;;;;;;;;;14.00;14.00;;;;;;;;5062570;28;8855;-80
2023/06/17 14:16:22;;;;;;;;;11.60;11.60;;;;;;;;5053204;28;8870;-80
2023/06/17 14:18:49;;;;;;;;;13.40;13.40;;;;;;;;5064010;28;8877;-79
2023/06/17 14:21:27;;;;;;;;;15.20;14.60;;;;;;;;5051756;28;8876;-80
2023/06/17 14:24:04;;;;;;;;;14.60;14.60;;;;;;;;5053471;28;8869;-79
2023/06/17 14:26:32;;;;;;;;;14.80;14.80;;;;;;;;5071753;28;8857;-79
2023/06/17 14:29:01;;;;;;;;;12.80;12.80;;;;;;;;5055557;28;8892;-79
2023/06/17 14:31:31;;;;;;;;;15.60;14.80;;;;;;;;5051840;28;8794;-79
2023/06/17 14:33:59;;;;;;;;;15.00;15.00;;;;;;;;5059113;28;8869;-79
2023/06/17 14:36:26;;;;;;;;;12.60;12.60;;;;;;;;5062941;28;8997;-79
2023/06/17 14:38:54;;;;;;;;;12.60;11.60;;;;;;;;5069938;28;8874;-79
2023/06/17 14:41:21;;;;;;;;;14.60;13.20;;;;;;;;5063441;28;8862;-80
2023/06/17 14:43:48;;;;;;;;;13.00;12.00;;;;;;;;5064110;28;8859;-79
2023/06/17 14:46:21;;;;;;;;;14.20;13.40;;;;;;;;5064084;28;8876;-80